Time;durP1;ratioP1;P1;durP2;ratioP2;P2;SDS_P1;SDS_P2;PMS_P1;PMS_P2;Temp;Humidity;BMP_temperature;BMP_pressure;BME280_temperature;BME280_humidity;BME280_pressure;Samples;Min_cycle;Max_cycle;Signal;HPM_P1;HPM_P2
2024/01/08 00:01:39;;;;;;;8.68;4.38;;;-2.40;99.90;;;-1.60;100.00;102034.47;4940881;28;20390;-79
2024/01/08 00:04:08;;;;;;;8.93;4.15;;;-2.40;99.90;;;-1.49;100.00;102043.63;4965729;28;20040;-79
2024/01/08 00:06:34;;;;;;;9.35;4.57;;;-2.40;99.90;;;-1.65;100.00;102039.28;4936214;29;20036;-79
2024/01/08 00:09:00;;;;;;;10.23;4.68;;;-2.40;99.90;;;-1.74;100.00;102038.09;4956389;28;20043;-79
2024/01/08 00:11:25;;;;;;;10.43;3.53;;;-2.40;99.90;;;-1.67;100.00;102041.22;4943742;28;20091;-79
2024/01/08 00:13:51;;;;;;;10.25;4.50;;;-2.40;99.90;;;-1.51;100.00;102054.44;4954382;28;20067;-79
2024/01/08 00:16:17;;;;;;;7.88;3.97;;;-2.40;99.90;;;-1.65;100.00;102047.31;4933648;29;20052;-79
2024/01/08 00:18:42;;;;;;;8.50;4.50;;;-2.40;99.90;;;-1.67;100.00;102051.09;4935715;29;20066;-78
2024/01/08 00:21:08;;;;;;;8.48;4.40;;;-2.30;99.90;;;-1.73;100.00;102053.19;4938725;28;20043;-78
2024/01/08 00:23:35;;;;;;;8.88;4.72;;;-2.40;99.90;;;-1.44;100.00;102038.81;4959355;28;20050;-78
2024/01/08 00:26:00;;;;;;;9.52;4.55;;;-2.30;99.90;;;-1.79;100.00;102034.84;4941389;28;20027;-79
2024/01/08 00:28:26;;;;;;;11.90;5.18;;;-2.40;99.90;;;-1.83;100.00;102029.84;4938750;28;20138;-78
2024/01/08 00:30:53;;;;;;;8.75;5.03;;;-2.30;99.90;;;-1.61;100.00;102043.47;4938847;29;20075;-79
2024/01/08 00:33:21;;;;;;;10.93;4.28;;;-2.30;99.90;;;-1.75;100.00;102038.19;4948491;29;20051;-78
2024/01/08 00:35:47;;;;;;;9.52;5.05;;;-2.30;99.90;;;-1.64;100.00;102043.69;4938523;29;20084;-79
2024/01/08 00:38:13;;;;;;;9.75;4.85;;;-2.30;99.90;;;-1.58;100.00;102044.25;4953266;28;20487;-79
2024/01/08 00:40:39;;;;;;;9.18;4.45;;;-2.30;99.90;;;-1.74;100.00;102048.78;4938810;29;20043;-79
2024/01/08 00:43:05;;;;;;;9.73;4.35;;;-2.30;99.90;;;-1.58;100.00;102049.63;4938437;29;20035;-78
2024/01/08 00:45:31;;;;;;;13.38;5.68;;;-2.30;99.90;;;-1.74;100.00;102051.47;4938206;29;20040;-79
2024/01/08 00:47:57;;;;;;;7.80;4.10;;;-2.30;99.90;;;-1.58;100.00;102053.13;4947089;28;20126;-78
2024/01/08 00:50:23;;;;;;;9.90;4.90;;;-2.30;99.90;;;-1.62;100.00;102052.47;4943182;28;20039;-78
2024/01/08 00:52:48;;;;;;;7.30;4.45;;;-2.30;99.90;;;-1.70;100.00;102054.81;4946324;28;20052;-78
2024/01/08 00:55:14;;;;;;;8.20;4.18;;;-2.30;99.90;;;-1.60;100.00;102061.25;4962502;28;20043;-78
2024/01/08 00:57:40;;;;;;;9.40;4.82;;;-2.30;99.90;;;-1.48;100.00;102064.09;4940173;29;20038;-78
2024/01/08 01:00:08;;;;;;;8.25;3.95;;;-2.30;99.90;;;-1.60;100.00;102063.09;4941010;28;20035;-78
2024/01/08 01:02:35;;;;;;;8.68;3.55;;;-2.30;99.90;;;-1.58;100.00;102054.97;4952779;28;20063;-79
2024/01/08 01:05:01;;;;;;;7.60;4.38;;;-2.30;99.90;;;-1.74;100.00;102064.84;4941929;29;20035;-78
2024/01/08 01:07:27;;;;;;;8.20;4.28;;;-2.20;99.90;;;-1.74;100.00;102048.78;4937818;28;20507;-78
2024/01/08 01:09:54;;;;;;;6.78;3.67;;;-2.20;99.90;;;-1.67;100.00;102054.59;4951925;29;20051;-78
2024/01/08 01:12:20;;;;;;;8.93;4.32;;;-2.30;99.90;;;-1.74;100.00;102045.28;4942003;28;20551;-79
2024/01/08 01:14:46;;;;;;;9.95;4.55;;;-2.30;99.90;;;-1.50;100.00;102066.84;4957180;28;20044;-78
2024/01/08 01:17:11;;;;;;;12.98;4.70;;;-2.20;99.90;;;-1.14;100.00;102071.66;4941936;28;20035;-79
2024/01/08 01:19:37;;;;;;;10.85;5.50;;;-2.20;99.90;;;-1.62;100.00;102075.72;4947604;29;20380;-78
2024/01/08 01:22:03;;;;;;;9.10;4.63;;;-2.20;99.90;;;-1.53;100.00;102071.56;4938219;29;20110;-79
2024/01/08 01:24:29;;;;;;;9.63;4.82;;;-2.20;99.90;;;-1.49;100.00;102073.91;4937911;29;20049;-78
2024/01/08 01:26:55;;;;;;;7.78;3.92;;;-2.20;99.90;;;-1.73;100.00;102081.78;4943491;29;20140;-78
2024/01/08 01:29:20;;;;;;;9.63;5.05;;;-2.20;99.90;;;-1.48;100.00;102078.31;4936955;28;20035;-78
2024/01/08 01:31:46;;;;;;;10.63;5.00;;;-2.20;99.90;;;-1.32;100.00;102071.94;4949962;28;20047;-78
2024/01/08 01:34:12;;;;;;;9.30;4.40;;;-2.20;99.90;;;-1.27;100.00;102077.00;4937455;29;20083;-79
2024/01/08 01:36:39;;;;;;;10.25;4.55;;;-2.20;99.90;;;-1.49;100.00;102076.59;4936619;28;20067;-79
2024/01/08 01:39:05;;;;;;;10.35;5.60;;;-2.20;99.90;;;-1.07;100.00;102075.63;4943093;29;20053;-79
2024/01/08 01:41:34;;;;;;;11.50;5.13;;;-2.10;99.90;;;-1.10;100.00;102079.38;4946751;29;20053;-79
2024/01/08 01:44:00;;;;;;;9.80;5.32;;;-2.10;99.90;;;-1.07;100.00;102079.16;4937557;29;21306;-79
2024/01/08 01:46:40;;;;;;;11.20;5.07;;;-2.10;99.90;;;-1.11;100.00;102083.00;4944330;29;20122;-79
2024/01/08 01:49:08;;;;;;;8.52;4.25;;;-2.10;99.90;;;-1.19;100.00;102080.00;4941427;29;20036;-79
2024/01/08 01:51:34;;;;;;;6.60;4.22;;;-2.10;99.90;;;-1.41;100.00;102075.25;4945726;28;20027;-77
2024/01/08 01:54:01;;;;;;;8.50;4.78;;;-2.10;99.90;;;-1.23;100.00;102079.34;4951836;28;20631;-77
2024/01/08 01:56:27;;;;;;;11.20;5.45;;;-2.10;99.90;;;-0.96;100.00;102078.41;4940266;29;20046;-77
2024/01/08 01:58:54;;;;;;;8.85;4.78;;;-2.10;99.90;;;-1.12;100.00;102081.28;4952030;28;20050;-79
2024/01/08 02:01:20;;;;;;;9.43;4.63;;;-2.00;99.90;;;-1.09;100.00;102086.44;4938990;28;20080;-79
2024/01/08 02:03:46;;;;;;;12.27;5.88;;;-2.00;99.90;;;-1.06;100.00;102086.25;4937302;28;20063;-78
2024/01/08 02:06:17;;;;;;;9.68;4.70;;;-2.00;99.90;;;-1.11;100.00;102082.16;4947019;29;20062;-77
2024/01/08 02:08:44;;;;;;;9.00;5.05;;;-2.00;99.90;;;-0.95;100.00;102087.31;4940007;29;20428;-79
2024/01/08 02:11:10;;;;;;;8.10;3.83;;;-2.00;99.90;;;-1.21;100.00;102087.28;4938636;29;20043;-78
2024/01/08 02:13:35;;;;;;;8.95;4.95;;;-2.00;99.90;;;-1.13;100.00;102090.28;4951560;28;20043;-78
2024/01/08 02:16:01;;;;;;;10.57;5.43;;;-2.00;99.90;;;-0.88;100.00;102077.91;4950615;29;20118;-78
2024/01/08 02:18:30;;;;;;;9.80;5.18;;;-2.00;99.90;;;-0.82;100.00;102082.81;4944974;28;20491;-78
2024/01/08 02:20:56;;;;;;;8.45;4.53;;;-2.00;99.90;;;-0.95;100.00;102081.97;4936553;28;20039;-79
2024/01/08 02:23:22;;;;;;;10.77;4.97;;;-2.00;99.90;;;-0.81;100.00;102084.53;4956106;28;20098;-78
2024/01/08 02:25:47;;;;;;;8.80;4.95;;;-2.00;99.90;;;-0.82;100.00;102073.94;4940583;29;20127;-79
2024/01/08 02:28:13;;;;;;;10.23;4.88;;;-2.00;99.90;;;-0.73;100.00;102086.69;4942683;28;20053;-78
2024/01/08 02:30:39;;;;;;;8.55;4.85;;;-2.00;99.90;;;-0.86;100.00;102092.03;4936673;29;20040;-78
2024/01/08 02:33:05;;;;;;;8.23;4.45;;;-1.90;99.90;;;-0.76;100.00;102101.19;4962225;28;20505;-78
2024/01/08 02:35:30;;;;;;;8.75;4.47;;;-1.90;99.90;;;-0.85;100.00;102087.56;4947849;28;20035;-78
2024/01/08 02:37:56;;;;;;;9.75;5.05;;;-1.90;99.90;;;-0.74;100.00;102085.84;4937276;29;20040;-78
2024/01/08 02:40:22;;;;;;;10.20;4.20;;;-1.90;99.90;;;-0.77;100.00;102091.41;4952036;28;20520;-78
2024/01/08 02:42:47;;;;;;;9.35;4.82;;;-1.90;99.90;;;-0.87;100.00;102101.91;4938119;28;20118;-78
2024/01/08 02:45:13;;;;;;;10.98;5.70;;;-2.00;99.90;;;-0.44;100.00;102098.06;4936260;29;20400;-77
2024/01/08 02:47:40;;;;;;;11.50;5.72;;;-1.90;99.90;;;-0.48;100.00;102090.31;4939972;28;20047;-78
2024/01/08 02:50:07;;;;;;;8.73;4.75;;;-1.90;99.90;;;-0.62;100.00;102096.66;4951177;28;20095;-78
2024/01/08 02:52:33;;;;;;;9.68;4.80;;;-1.90;99.90;;;-0.51;100.00;102086.06;4940883;28;20114;-78
2024/01/08 02:55:00;;;;;;;8.30;4.53;;;-1.90;99.90;;;-0.31;100.00;102100.72;4941089;29;20122;-78
2024/01/08 02:57:29;;;;;;;8.73;5.00;;;-1.90;99.90;;;-0.31;100.00;102095.34;4966289;28;20442;-78
2024/01/08 02:59:56;;;;;;;8.65;5.00;;;-1.90;99.90;;;-0.48;100.00;102095.69;4954607;28;20039;-78
2024/01/08 03:02:24;;;;;;;8.60;4.93;;;-1.80;99.90;;;-0.51;100.00;102094.09;4936180;29;20645;-78
2024/01/08 03:04:51;;;;;;;9.15;4.15;;;-1.90;99.90;;;-0.82;100.00;102096.22;4935696;29;20058;-78
2024/01/08 03:07:19;;;;;;;8.60;4.40;;;-1.80;99.90;;;-0.81;100.00;102083.69;4940728;29;20051;-78
2024/01/08 03:09:46;;;;;;;7.07;3.70;;;-1.80;99.90;;;-0.57;100.00;102094.50;4946049;29;20047;-79
2024/01/08 03:12:13;;;;;;;9.13;4.70;;;-1.80;99.90;;;-0.77;100.00;102099.47;4938383;29;20043;-77
2024/01/08 03:14:39;;;;;;;8.40;4.32;;;-1.80;99.90;;;-0.70;100.00;102086.47;4949229;28;20063;-78
2024/01/08 03:17:05;;;;;;;9.02;4.40;;;-1.80;99.90;;;-0.68;100.00;102099.78;4935759;29;21921;-78
2024/01/08 03:19:31;;;;;;;7.00;3.88;;;-1.80;99.90;;;-0.81;100.00;102111.34;4950346;28;20042;-78
2024/01/08 03:22:00;;;;;;;8.10;4.32;;;-1.80;99.90;;;-0.58;100.00;102100.84;4935809;28;20055;-78
2024/01/08 03:24:25;;;;;;;5.30;2.78;;;-1.80;99.90;;;-0.81;100.00;102115.84;4950404;28;20373;-78
2024/01/08 03:26:51;;;;;;;7.32;4.40;;;-1.80;99.90;;;-0.62;100.00;102108.25;4935132;29;20082;-78
2024/01/08 03:29:17;;;;;;;8.35;4.20;;;-1.80;99.90;;;-0.47;100.00;102111.69;4950990;29;20039;-78
2024/01/08 03:31:44;;;;;;;8.05;4.18;;;-1.80;99.90;;;-0.80;100.00;102121.09;4941011;28;20048;-78
2024/01/08 03:34:10;;;;;;;7.85;3.80;;;-1.80;99.90;;;-0.48;100.00;102114.44;4935569;29;20040;-78
2024/01/08 03:36:36;;;;;;;6.50;3.25;;;-1.80;99.90;;;-0.87;100.00;102117.13;4940159;28;20363;-78
2024/01/08 03:39:02;;;;;;;10.15;4.18;;;-1.80;99.90;;;-0.66;100.00;102121.97;4947307;29;20032;-78
2024/01/08 03:41:28;;;;;;;5.88;3.60;;;-1.80;99.90;;;-0.53;100.00;102117.47;4949823;29;20094;-78
2024/01/08 03:43:53;;;;;;;9.02;3.95;;;-1.80;99.90;;;-0.81;100.00;102127.41;4939041;28;20503;-78
2024/01/08 03:46:19;;;;;;;7.82;4.00;;;-1.80;99.90;;;-0.60;100.00;102118.84;4958360;28;20035;-78
2024/01/08 03:48:45;;;;;;;6.03;3.00;;;-1.80;99.90;;;-1.07;100.00;102113.97;4935366;28;20440;-78
2024/01/08 03:51:11;;;;;;;7.85;4.30;;;-1.80;99.90;;;-0.69;100.00;102124.88;4943328;29;20035;-78
2024/01/08 03:53:37;;;;;;;6.85;3.67;;;-1.80;99.90;;;-1.12;100.00;102113.44;4935171;29;20048;-77
2024/01/08 03:56:03;;;;;;;7.85;3.92;;;-1.90;99.90;;;-0.69;100.00;102114.16;4935675;29;20487;-78
2024/01/08 03:58:29;;;;;;;9.88;3.95;;;-1.90;99.90;;;-0.76;100.00;102103.84;4938273;29;20041;-78
2024/01/08 04:00:54;;;;;;;8.68;4.22;;;-1.90;99.90;;;-0.65;100.00;102123.69;4938153;29;20095;-78
2024/01/08 04:03:20;;;;;;;6.78;3.80;;;-1.90;99.90;;;-0.42;100.00;102123.91;4954160;28;20047;-78
2024/01/08 04:05:46;;;;;;;7.35;4.03;;;-1.90;99.90;;;-0.46;100.00;102125.94;4943975;28;20108;-78
2024/01/08 04:08:12;;;;;;;8.23;3.42;;;-1.90;99.90;;;-0.81;100.00;102127.41;4939505;29;20043;-78
2024/01/08 04:10:38;;;;;;;7.22;3.90;;;-1.90;99.90;;;-0.83;100.00;102134.69;4938470;29;20047;-77
2024/01/08 04:13:04;;;;;;;7.40;3.75;;;-1.90;99.90;;;-0.65;100.00;102121.00;4939215;28;20110;-78
2024/01/08 04:15:30;;;;;;;7.72;4.20;;;-1.90;99.90;;;-0.76;100.00;102127.09;4938270;28;20056;-78
2024/01/08 04:17:57;;;;;;;8.57;4.15;;;-1.90;99.90;;;-0.59;100.00;102142.03;4939310;29;20035;-78
2024/01/08 04:20:22;;;;;;;9.18;3.92;;;-1.90;99.90;;;-0.74;100.00;102139.44;4953397;28;20036;-78
2024/01/08 04:22:50;;;;;;;5.30;3.15;;;-1.90;99.90;;;-0.87;100.00;102146.59;4947656;29;20039;-78
2024/01/08 04:25:16;;;;;;;8.48;4.10;;;-1.90;99.90;;;-0.59;100.00;102137.53;4944625;28;20042;-78
2024/01/08 04:27:45;;;;;;;7.85;3.65;;;-1.90;99.90;;;-0.60;100.00;102140.31;4958855;28;20423;-78
2024/01/08 04:30:12;;;;;;;7.28;3.90;;;-1.90;99.90;;;-0.47;100.00;102130.44;4968982;28;20386;-78
2024/01/08 04:32:37;;;;;;;7.72;3.88;;;-1.90;99.90;;;-0.53;100.00;102149.66;4949785;28;20094;-78
2024/01/08 04:35:04;;;;;;;6.78;3.60;;;-1.90;99.90;;;-0.67;100.00;102134.50;4943214;29;20399;-78
2024/01/08 04:37:30;;;;;;;5.20;3.10;;;-2.00;99.90;;;-0.81;100.00;102132.78;4944066;29;20153;-78
2024/01/08 04:39:55;;;;;;;6.45;2.80;;;-2.20;99.90;;;-0.90;100.00;102128.06;4938369;29;20194;-78
2024/01/08 04:42:21;;;;;;;6.32;3.15;;;-2.20;99.90;;;-1.11;100.00;102136.59;4938412;29;20032;-78
2024/01/08 04:44:47;;;;;;;6.28;3.15;;;-2.40;99.90;;;-1.23;100.00;102132.91;4938651;28;20476;-78
2024/01/08 04:47:13;;;;;;;5.50;2.53;;;-2.50;99.90;;;-1.02;100.00;102140.47;4942551;29;20070;-78
2024/01/08 04:49:40;;;;;;;5.13;2.80;;;-2.60;99.90;;;-1.25;100.00;102150.06;4947544;28;20035;-78
2024/01/08 04:52:07;;;;;;;5.18;2.63;;;-2.70;99.90;;;-1.33;100.00;102143.41;4938143;29;20336;-78
2024/01/08 04:54:32;;;;;;;6.18;2.70;;;-2.80;99.90;;;-1.25;100.00;102145.53;4962076;28;20146;-78
2024/01/08 04:56:59;;;;;;;5.47;2.72;;;;;;;-1.28;100.00;102160.97;4938085;29;20070;-78
2024/01/08 04:59:25;;;;;;;8.13;3.40;;;-3.10;99.90;;;-1.76;100.00;102156.91;4937965;29;20054;-78
2024/01/08 05:01:51;;;;;;;6.72;3.40;;;-3.20;99.90;;;-1.67;100.00;102167.00;4936352;29;20051;-78
2024/01/08 05:04:17;;;;;;;6.25;3.30;;;-3.20;99.90;;;-1.83;100.00;102161.78;4941926;29;20049;-78
2024/01/08 05:06:44;;;;;;;7.22;3.22;;;-3.30;99.90;;;-1.81;100.00;102175.09;4961546;28;20091;-78
2024/01/08 05:09:10;;;;;;;5.20;3.10;;;-3.40;99.90;;;-1.93;100.00;102166.88;4943195;29;20050;-78
2024/01/08 05:11:36;;;;;;;7.93;2.92;;;-3.50;99.90;;;-2.13;100.00;102175.28;4951983;28;20053;-77
2024/01/08 05:14:06;;;;;;;7.10;3.33;;;-3.50;99.90;;;-2.09;100.00;102176.84;4937682;29;20028;-78
2024/01/08 05:16:32;;;;;;;6.40;2.97;;;-3.60;99.90;;;-2.05;100.00;102189.06;4947334;29;20044;-77
2024/01/08 05:18:58;;;;;;;7.18;3.10;;;-3.60;99.90;;;-2.19;100.00;102176.53;4953185;29;20094;-78
2024/01/08 05:21:24;;;;;;;6.72;3.13;;;-3.80;99.90;;;-2.26;100.00;102175.19;4948742;28;20044;-78
2024/01/08 05:23:50;;;;;;;6.85;3.58;;;-3.80;99.90;;;-2.43;100.00;102170.88;4938726;29;20087;-77
2024/01/08 05:26:15;;;;;;;7.35;3.50;;;-3.80;99.90;;;-2.34;100.00;102178.34;4937826;28;20039;-77
2024/01/08 05:28:41;;;;;;;7.22;3.38;;;-3.90;99.90;;;-2.46;100.00;102196.00;4959804;28;20039;-77
2024/01/08 05:31:07;;;;;;;8.77;3.45;;;-4.00;99.90;;;-2.51;100.00;102193.59;4959534;28;20046;-78
2024/01/08 05:33:33;;;;;;;7.07;3.25;;;-4.10;99.90;;;-2.65;100.00;102189.09;4952158;28;20027;-78
2024/01/08 05:35:58;;;;;;;8.45;3.20;;;-4.10;99.90;;;-2.67;100.00;102203.47;4958652;28;20047;-77
2024/01/08 05:38:25;;;;;;;9.10;3.53;;;-4.10;99.90;;;-2.82;100.00;102194.56;4936964;28;20388;-78
2024/01/08 05:40:51;;;;;;;7.00;3.60;;;-4.20;99.90;;;-2.90;100.00;102206.56;4938797;29;20043;-77
2024/01/08 05:43:17;;;;;;;8.35;3.13;;;-4.10;99.90;;;-2.75;100.00;102202.13;4942710;28;20044;-78
2024/01/08 05:45:42;;;;;;;5.60;3.25;;;-4.10;99.90;;;-2.84;100.00;102200.03;4942659;28;20039;-80
2024/01/08 05:48:08;;;;;;;8.05;3.22;;;-4.20;99.90;;;-2.76;100.00;102200.41;4937400;28;20032;-79
2024/01/08 05:50:34;;;;;;;7.22;3.05;;;-4.20;99.90;;;-3.09;100.00;102192.56;4937201;28;20484;-79
2024/01/08 05:53:00;;;;;;;6.60;2.90;;;-4.20;99.90;;;-2.92;100.00;102192.44;4936939;29;20047;-78
2024/01/08 05:55:26;;;;;;;6.53;3.03;;;-4.30;99.90;;;-2.95;99.83;102189.97;4941475;29;20049;-78
2024/01/08 05:57:52;;;;;;;6.35;2.95;;;-4.30;99.90;;;-3.03;100.00;102201.09;4936973;29;20450;-80
2024/01/08 06:00:18;;;;;;;5.95;2.63;;;-4.30;99.90;;;-2.98;100.00;102211.50;4945505;29;20499;-80
2024/01/08 06:02:44;;;;;;;9.77;3.40;;;-4.40;99.90;;;-2.83;100.00;102207.09;4935361;28;20032;-78
2024/01/08 06:05:11;;;;;;;6.65;3.00;;;-4.50;99.90;;;-2.99;100.00;102224.94;4943341;29;20078;-77
2024/01/08 06:07:37;;;;;;;7.10;3.33;;;-4.60;99.90;;;-3.19;100.00;102226.94;4936541;29;20040;-79
2024/01/08 06:10:03;;;;;;;7.10;3.30;;;-4.70;99.90;;;-3.18;100.00;102237.56;4951236;29;20101;-80
2024/01/08 06:12:30;;;;;;;6.70;3.00;;;-4.70;99.90;;;-3.16;100.00;102241.94;4963823;28;20038;-81
2024/01/08 06:14:55;;;;;;;8.32;3.60;;;-4.70;99.90;;;-3.18;100.00;102242.06;4937207;29;20518;-81
2024/01/08 06:17:22;;;;;;;8.55;3.85;;;-4.70;99.90;;;-3.16;100.00;102234.81;4934716;29;20044;-79
2024/01/08 06:19:48;;;;;;;6.70;3.25;;;-4.70;99.90;;;-3.33;100.00;102233.94;4934749;29;20070;-81
2024/01/08 06:22:15;;;;;;;6.15;3.25;;;-4.70;99.90;;;-3.34;100.00;102242.91;4938306;28;20066;-81
2024/01/08 06:24:41;;;;;;;8.02;3.83;;;-4.70;99.90;;;-3.28;100.00;102254.19;4956762;28;20140;-81
2024/01/08 06:27:06;;;;;;;5.93;2.97;;;-4.60;99.90;;;-3.33;100.00;102249.97;4940600;28;20123;-81
2024/01/08 06:29:33;;;;;;;5.90;3.20;;;-4.60;99.90;;;-3.23;100.00;102238.75;4954417;28;20044;-80
2024/01/08 06:31:59;;;;;;;6.13;3.00;;;-4.70;99.90;;;-3.34;100.00;102242.91;4938629;29;20035;-84
2024/01/08 06:34:25;;;;;;;7.72;3.70;;;-4.80;99.90;;;-3.42;100.00;102239.81;4943462;29;20118;-79
2024/01/08 06:36:51;;;;;;;6.95;3.22;;;-4.80;99.90;;;-3.47;100.00;102255.19;4940692;29;20558;-82
2024/01/08 06:39:17;;;;;;;8.68;3.58;;;-4.90;99.90;;;-3.43;100.00;102261.25;4949802;29;20137;-80
2024/01/08 06:41:43;;;;;;;6.65;2.95;;;-4.90;99.90;;;-3.60;100.00;102257.69;4940811;28;20032;-82
2024/01/08 06:44:08;;;;;;;7.30;3.20;;;-4.90;99.90;;;-3.36;100.00;102262.63;4936185;28;20507;-80
2024/01/08 06:46:34;;;;;;;6.97;2.80;;;-5.00;99.90;;;-3.48;100.00;102241.00;4943094;28;20035;-81
2024/01/08 06:49:00;;;;;;;6.90;3.13;;;-5.10;99.90;;;-3.47;100.00;102260.53;4937497;28;20039;-80
2024/01/08 06:51:26;;;;;;;5.82;2.95;;;-5.20;99.90;;;-3.52;100.00;102265.28;4945431;28;20035;-81
2024/01/08 06:53:52;;;;;;;7.70;3.13;;;-5.30;99.90;;;-3.77;100.00;102271.94;4955392;28;20078;-81
2024/01/08 06:56:17;;;;;;;8.65;3.90;;;-5.40;99.90;;;-3.69;100.00;102277.75;4940091;29;20575;-82
2024/01/08 06:58:43;;;;;;;7.20;3.28;;;-5.50;99.90;;;-3.85;100.00;102287.53;4938241;29;20070;-81
2024/01/08 07:01:09;;;;;;;7.00;3.10;;;-5.50;99.90;;;-3.93;100.00;102302.13;4947149;28;20046;-79
2024/01/08 07:03:35;;;;;;;5.95;2.90;;;-5.40;99.90;;;-4.19;100.00;102292.81;4945250;28;20062;-79
2024/01/08 07:06:02;;;;;;;9.25;3.00;;;-5.30;99.90;;;-4.01;99.27;102277.66;4947182;28;20037;-79
2024/01/08 07:08:27;;;;;;;5.97;2.80;;;-5.30;99.90;;;-4.08;95.38;102261.16;4943929;29;20126;-79
2024/01/08 07:10:53;;;;;;;5.57;2.78;;;-5.20;99.90;;;-3.79;94.07;102268.50;4948132;28;20649;-80
2024/01/08 07:13:19;;;;;;;6.72;3.10;;;-5.30;99.90;;;-3.77;93.10;102277.28;4956342;28;20039;-80
2024/01/08 07:15:48;;;;;;;5.50;2.83;;;-5.50;99.90;;;-3.98;93.09;102280.19;4959929;28;20030;-80
2024/01/08 07:18:16;;;;;;;5.88;2.97;;;-5.60;99.90;;;-4.01;92.08;102283.00;4954573;28;20141;-79
2024/01/08 07:20:42;;;;;;;6.53;3.00;;;-5.60;99.90;;;-4.12;92.59;102288.03;4958037;28;20190;-80
2024/01/08 07:23:11;;;;;;;7.78;3.45;;;-5.70;99.90;;;-4.15;93.17;102286.38;4941074;29;20055;-79
2024/01/08 07:25:39;;;;;;;8.55;3.53;;;-5.70;99.90;;;-4.07;93.91;102296.66;4954702;28;20055;-80
2024/01/08 07:28:10;;;;;;;6.15;2.72;;;-5.80;99.90;;;-4.23;95.19;102308.13;4948687;28;20035;-80
2024/01/08 07:30:37;;;;;;;6.63;3.00;;;-5.80;99.90;;;-4.35;95.17;102296.28;4951799;28;20058;-80
2024/01/08 07:33:03;;;;;;;4.78;2.63;;;-5.90;99.90;;;-4.28;94.91;102310.16;4939148;28;20054;-80
2024/01/08 07:35:29;;;;;;;5.97;2.90;;;-5.90;99.90;;;-4.45;94.18;102291.50;4940381;29;20134;-80
2024/01/08 07:37:55;;;;;;;8.85;3.28;;;-5.80;99.90;;;-4.12;93.86;102301.38;4939427;29;20131;-80
2024/01/08 07:40:27;;;;;;;6.07;3.03;;;-5.70;99.90;;;-4.23;94.68;102292.13;4935880;29;20031;-81
2024/01/08 07:42:55;;;;;;;7.03;3.33;;;-5.70;99.90;;;-4.19;95.90;102325.69;4964234;28;20449;-81
2024/01/08 07:45:23;;;;;;;7.18;3.28;;;-5.70;99.90;;;-4.21;95.53;102322.25;4951754;28;20051;-79
2024/01/08 07:47:49;;;;;;;6.63;2.53;;;-5.70;99.90;;;-4.25;91.04;102309.97;4934981;28;20403;-78
2024/01/08 07:50:15;;;;;;;8.32;3.00;;;-5.60;99.90;;;-4.15;90.09;102304.19;4959537;28;20042;-78
2024/01/08 07:52:41;;;;;;;8.02;2.97;;;-5.60;99.90;;;-4.22;86.76;102283.19;4935514;28;20439;-78
2024/01/08 07:55:08;;;;;;;7.30;3.10;;;-5.60;99.90;;;-4.15;86.21;102288.19;4935299;28;20068;-79
2024/01/08 07:57:34;;;;;;;6.35;2.90;;;-5.60;99.90;;;-4.14;83.46;102284.59;4935128;29;20395;-79
2024/01/08 08:00:03;;;;;;;8.13;3.40;;;-5.50;99.90;;;-4.15;82.16;102282.88;4953850;28;20161;-79
2024/01/08 08:02:29;;;;;;;5.90;2.70;;;-5.50;99.90;;;-4.06;81.51;102288.59;4934738;29;20063;-78
2024/01/08 08:04:55;;;;;;;4.78;2.53;;;-5.50;99.90;;;-4.07;81.18;102280.66;4934741;29;20054;-78
2024/01/08 08:07:21;;;;;;;6.93;2.95;;;-5.50;99.90;;;-4.06;80.00;102280.59;4935012;28;20122;-77
2024/01/08 08:09:47;;;;;;;6.70;2.60;;;-5.50;99.90;;;-3.88;79.68;102283.19;4934255;28;20110;-78
2024/01/08 08:12:13;;;;;;;4.20;2.38;;;-5.40;99.90;;;-4.11;76.89;102279.09;4934825;29;20039;-78
2024/01/08 08:14:38;;;;;;;5.88;2.63;;;-5.40;99.90;;;-3.95;78.34;102284.47;4933409;29;20036;-78
2024/01/08 08:17:04;;;;;;;6.75;2.78;;;-5.40;99.90;;;-3.97;79.76;102297.91;4935029;29;20040;-78
2024/01/08 08:19:30;;;;;;;5.85;2.65;;;-5.40;99.90;;;-3.90;77.73;102280.63;4946656;28;20042;-77
2024/01/08 08:21:56;;;;;;;5.25;2.67;;;-5.40;99.90;;;-3.85;77.52;102300.84;4956586;28;20065;-78
2024/01/08 08:24:23;;;;;;;6.82;2.65;;;-5.40;99.90;;;-3.74;78.00;102305.63;4934377;28;20048;-77
2024/01/08 08:26:48;;;;;;;5.20;2.70;;;-5.40;99.90;;;-4.11;76.89;102293.31;4949475;28;20566;-77
2024/01/08 08:29:14;;;;;;;5.97;2.53;;;-5.30;99.90;;;-3.90;75.36;102295.75;4934791;29;20040;-78
2024/01/08 08:31:40;;;;;;;7.10;2.70;;;-5.20;99.90;;;-3.74;74.81;102295.78;4943611;28;20087;-77
2024/01/08 08:34:05;;;;;;;6.75;3.33;;;-5.10;99.90;;;-3.45;75.97;102308.50;4953894;28;20043;-77
2024/01/08 08:36:31;;;;;;;8.20;3.03;;;-5.10;99.90;;;-3.39;76.56;102319.72;4949025;28;20054;-78
2024/01/08 08:38:57;;;;;;;5.95;2.65;;;-5.00;99.90;;;-3.29;75.24;102316.53;4944735;29;20047;-78
2024/01/08 08:41:23;;;;;;;6.50;3.00;;;-4.90;99.90;;;-3.07;75.65;102325.06;4934845;29;20040;-78
2024/01/08 08:43:48;;;;;;;5.78;2.75;;;-4.90;99.90;;;-3.48;72.49;102305.06;4957893;28;20049;-78
2024/01/08 08:46:17;;;;;;;5.68;2.80;;;-4.80;99.90;;;-3.44;71.80;102303.09;4951187;29;20066;-78
2024/01/08 08:48:44;;;;;;;7.25;3.10;;;-4.80;99.90;;;-3.14;72.18;102306.81;4938728;28;20095;-79
2024/01/08 08:51:10;;;;;;;5.85;2.95;;;-4.60;99.90;;;-3.11;73.05;102323.53;4952703;28;20055;-79
2024/01/08 08:53:37;;;;;;;6.40;2.95;;;-4.60;99.90;;;-2.85;74.32;102328.31;4955649;28;20109;-78
2024/01/08 08:56:04;;;;;;;7.35;3.08;;;-4.50;99.90;;;-3.16;71.87;102325.59;4944638;29;20151;-78
2024/01/08 08:58:30;;;;;;;5.90;2.90;;;-4.40;99.90;;;-3.12;72.19;102327.16;4954104;28;20390;-77
2024/01/08 09:00:56;;;;;;;6.70;2.90;;;-4.40;99.90;;;-2.93;71.63;102320.75;4936603;29;20380;-78
2024/01/08 09:03:24;;;;;;;6.30;2.90;;;-4.30;99.90;;;-2.95;69.73;102326.19;4952550;28;20130;-78
2024/01/08 09:05:49;;;;;;;6.78;3.25;;;-4.30;99.90;;;-2.63;68.79;102320.81;4938003;29;20450;-78
2024/01/08 09:08:17;;;;;;;5.78;3.00;;;-4.20;99.90;;;-2.37;69.31;102328.25;4936536;29;20048;-78
2024/01/08 09:10:42;;;;;;;5.93;3.25;;;-4.10;99.90;;;-2.43;69.56;102344.63;4956046;28;20043;-79
2024/01/08 09:13:08;;;;;;;6.38;3.03;;;-4.00;99.90;;;-2.30;68.63;102332.28;4942098;29;20066;-79
2024/01/08 09:15:34;;;;;;;6.60;2.90;;;-3.80;99.90;;;-2.22;72.35;102361.25;4937535;29;20039;-79
2024/01/08 09:18:00;;;;;;;7.10;3.53;;;-3.80;99.90;;;-2.02;71.47;102376.94;4937759;29;20076;-78
2024/01/08 09:20:26;;;;;;;7.03;4.05;;;-3.60;99.90;;;-2.27;66.80;102339.25;4952246;28;20042;-80
2024/01/08 09:22:52;;;;;;;6.82;3.60;;;-3.60;99.90;;;-1.92;67.10;102347.84;4942974;29;20047;-79
2024/01/08 09:25:18;;;;;;;7.32;3.50;;;-3.60;99.90;;;-2.11;68.14;102344.56;4937086;29;20043;-79
2024/01/08 09:27:43;;;;;;;6.72;3.30;;;-3.50;99.90;;;-2.21;65.35;102323.69;4937581;29;20039;-78
2024/01/08 09:30:09;;;;;;;6.05;3.25;;;-3.50;99.90;;;-1.99;65.94;102342.94;4957673;28;20054;-79
2024/01/08 09:32:35;;;;;;;6.28;3.20;;;-3.40;99.90;;;-1.78;64.70;102333.63;4957911;28;20043;-79
2024/01/08 09:35:01;;;;;;;5.47;2.92;;;-3.30;99.90;;;-1.67;65.63;102343.66;4945348;28;20034;-79
2024/01/08 09:37:26;;;;;;;6.40;3.15;;;-3.20;99.90;;;-1.37;66.55;102368.63;4942819;29;20152;-79
2024/01/08 09:39:53;;;;;;;6.25;3.33;;;-2.90;99.90;;;-1.53;63.37;102337.44;4936391;28;20039;-78
2024/01/08 09:42:21;;;;;;;6.45;3.00;;;-2.70;99.90;;;-0.98;64.78;102355.47;4937774;29;20122;-78
2024/01/08 09:44:53;;;;;;;5.88;3.15;;;-2.00;99.90;;;-0.90;64.14;102343.31;4941010;28;20042;-77
2024/01/08 09:47:20;;;;;;;6.45;3.00;;;-1.30;99.90;;;-0.70;62.85;102349.16;4937009;29;20043;-77
2024/01/08 09:49:47;;;;;;;6.85;2.92;;;-0.60;95.80;;;-0.69;60.93;102324.06;4944481;28;20038;-78
2024/01/08 09:52:14;;;;;;;6.47;3.00;;;-0.10;91.70;;;-0.95;61.20;102309.72;4943966;28;20496;-80
2024/01/08 09:54:42;;;;;;;6.97;3.65;;;-0.10;90.50;;;0.34;60.51;102339.50;4941596;29;20076;-80
2024/01/08 09:57:09;;;;;;;6.45;3.05;;;0.70;91.00;;;1.16;58.10;102316.66;4935445;29;20040;-79
2024/01/08 09:59:35;;;;;;;6.28;3.10;;;1.40;87.60;;;1.67;51.01;102252.78;4936586;29;20149;-79
2024/01/08 10:02:02;;;;;;;7.60;3.42;;;1.90;79.50;;;2.01;49.54;102242.94;4951695;28;20036;-79
2024/01/08 10:04:29;;;;;;;6.30;3.07;;;2.10;79.50;;;2.88;47.74;102224.34;4951214;28;20035;-80